createdAt,value
2022-10-19T00:00:50.039Z,34381.63
2022-10-19T00:03:22.293Z,34380.13
2022-10-19T00:05:50.900Z,33390.19
2022-10-19T00:08:18.431Z,34054.84
2022-10-19T00:10:45.932Z,34387.53
2022-10-19T00:13:13.377Z,34049.84
2022-10-19T00:15:41.644Z,35051.00
2022-10-19T00:18:09.624Z,34720.22
2022-10-19T00:20:38.559Z,35378.41
2022-10-19T00:23:06.211Z,36046.75
2022-10-19T00:25:33.733Z,35713.66
2022-10-19T00:28:01.859Z,36376.69
2022-10-19T00:30:29.328Z,37047.13
2022-10-19T00:32:56.819Z,36708.44
2022-10-19T00:35:24.308Z,37374.03
2022-10-19T00:37:53.103Z,37708.22
2022-10-19T00:40:20.559Z,37377.22
2022-10-19T00:42:48.035Z,37040.75
2022-10-19T00:45:17.500Z,37706.63
2022-10-19T00:47:46.053Z,38039.50
2022-10-19T00:50:17.267Z,38043.09
2022-10-19T00:52:44.828Z,38041.47
2022-10-19T00:55:14.374Z,38039.81
2022-10-19T00:57:42.135Z,38372.03
2022-10-19T01:00:10.762Z,38701.53
2022-10-19T01:02:38.369Z,39368.06
2022-10-19T01:05:07.369Z,39699.44
2022-10-19T01:07:35.290Z,39701.81
2022-10-19T01:10:03.328Z,40368.94
2022-10-19T01:13:12.991Z,39703.88
2022-10-19T01:15:49.638Z,40368.94
2022-10-19T01:18:23.204Z,41693.72
2022-10-19T01:21:13.691Z,42027.69
2022-10-19T01:24:02.403Z,42028.03
2022-10-19T01:26:50.493Z,42359.09
2022-10-19T01:29:26.800Z,43025.81
2022-10-19T01:32:03.472Z,43356.41
2022-10-19T01:34:35.727Z,44688.06
2022-10-19T01:37:11.824Z,45018.44
2022-10-19T01:39:47.714Z,44353.47
2022-10-19T01:42:25.379Z,44686.53
2022-10-19T01:44:56.636Z,45686.78
2022-10-19T01:47:30.820Z,46015.09
2022-10-19T01:50:00.981Z,46017.06
2022-10-19T01:52:29.312Z,47348.03
2022-10-19T01:54:59.740Z,47682.16
2022-10-19T01:57:31.678Z,47683.38
2022-10-19T01:59:59.508Z,47684.59
2022-10-19T02:02:29.123Z,47354.50
2022-10-19T02:04:58.555Z,47689.47
2022-10-19T02:07:26.448Z,47352.88
2022-10-19T02:09:53.994Z,46021.78
2022-10-19T02:12:22.675Z,46363.84
2022-10-19T02:14:54.076Z,45703.16
2022-10-19T02:17:24.978Z,46365.84
2022-10-19T02:19:54.825Z,46365.06
2022-10-19T02:22:22.882Z,46367.81
2022-10-19T02:24:50.363Z,46701.28
2022-10-19T02:27:18.935Z,47033.97
2022-10-19T02:29:46.486Z,47701.66
2022-10-19T02:32:14.138Z,47702.47
2022-10-19T02:34:42.496Z,48364.41
2022-10-19T02:37:11.408Z,48701.53
2022-10-19T02:39:39.387Z,49030.72
2022-10-19T02:42:12.218Z,48367.28
2022-10-19T02:44:43.894Z,48700.28
2022-10-19T02:47:15.068Z,48700.28
2022-10-19T02:49:44.140Z,48706.50
2022-10-19T02:52:14.250Z,48375.94
2022-10-19T02:54:44.936Z,48378.00
2022-10-19T02:57:17.732Z,49044.09
2022-10-19T02:59:45.411Z,49706.34
2022-10-19T03:02:12.965Z,49372.91
2022-10-19T03:04:41.568Z,48046.16
2022-10-19T03:07:10.418Z,48049.03
2022-10-19T03:09:39.240Z,48379.22
2022-10-19T03:12:06.834Z,48046.56
2022-10-19T03:14:34.387Z,48048.19
2022-10-19T03:17:01.866Z,47717.13
2022-10-19T03:19:29.481Z,47716.31
2022-10-19T03:21:56.933Z,47718.75
2022-10-19T03:24:24.728Z,47716.31
2022-10-19T03:26:53.879Z,47719.56
2022-10-19T03:29:21.343Z,48052.69
2022-10-19T03:31:48.920Z,47389.63
2022-10-19T03:34:16.401Z,46724.38
2022-10-19T03:36:43.940Z,47392.84
2022-10-19T03:39:13.903Z,47059.22
2022-10-19T03:41:41.885Z,47064.44
2022-10-19T03:44:11.900Z,47070.06
2022-10-19T03:46:39.517Z,48065.81
2022-10-19T03:49:07.340Z,48405.63
2022-10-19T03:51:35.699Z,48074.41
2022-10-19T03:54:04.727Z,48073.59
2022-10-19T03:56:33.203Z,47408.63
2022-10-19T03:59:02.065Z,48083.84
2022-10-19T04:01:33.122Z,49085.06
2022-10-19T04:04:02.859Z,48756.72
2022-10-19T04:06:32.321Z,49433.50
2022-10-19T04:09:00.443Z,50426.31
2022-10-19T04:11:29.987Z,49768.56
2022-10-19T04:13:59.410Z,50106.66
2022-10-19T04:16:29.234Z,50776.88
2022-10-19T04:18:58.466Z,50779.88
2022-10-19T04:21:28.084Z,51451.94
2022-10-19T04:23:59.546Z,51791.03
2022-10-19T04:26:27.350Z,52127.56
2022-10-19T04:28:54.924Z,52126.69
2022-10-19T04:31:22.473Z,53798.19
2022-10-19T04:33:49.919Z,53463.44
2022-10-19T04:36:19.018Z,54470.88
2022-10-19T04:38:46.503Z,53472.06
2022-10-19T04:41:15.831Z,54477.84
2022-10-19T04:43:45.177Z,54148.53
2022-10-19T04:46:14.654Z,53821.47
2022-10-19T04:48:42.700Z,55495.44
2022-10-19T04:51:11.092Z,55498.72
2022-10-19T04:53:41.474Z,55166.63
2022-10-19T04:56:11.918Z,55169.47
2022-10-19T04:58:39.399Z,55516.63
2022-10-19T05:01:11.277Z,56522.63
2022-10-19T05:03:39.291Z,57883.28
2022-10-19T05:06:08.079Z,59886.97
2022-10-19T05:08:36.283Z,59551.88
2022-10-19T05:11:07.574Z,59223.31
2022-10-19T05:13:35.824Z,60228.69
2022-10-19T05:16:06.335Z,60566.38
2022-10-19T05:18:35.702Z,59545.81
2022-10-19T05:21:04.867Z,61225.25
2022-10-19T05:26:08.048Z,60881.94
2022-10-19T05:28:36.119Z,59547.81
2022-10-19T05:31:10.550Z,59887.47
2022-10-19T05:33:38.713Z,60214.91
2022-10-19T05:36:14.613Z,59883.41
2022-10-19T05:38:42.114Z,59211.25
2022-10-19T05:41:10.980Z,59553.88
2022-10-19T05:43:38.486Z,60216.97
2022-10-19T05:46:07.749Z,60229.22
2022-10-19T05:48:35.916Z,61246.00
2022-10-19T05:51:05.195Z,61596.84
2022-10-19T05:53:33.231Z,63276.44
2022-10-19T05:56:00.844Z,62266.34
2022-10-19T05:58:31.131Z,64601.22
2022-10-19T06:01:00.123Z,63261.44
2022-10-19T06:03:28.885Z,63606.38
2022-10-19T06:05:57.135Z,64626.38
2022-10-19T06:08:26.868Z,65294.81
2022-10-19T06:10:54.344Z,64959.50
2022-10-19T06:13:21.991Z,64285.59
2022-10-19T06:15:52.910Z,63955.69
2022-10-19T06:18:25.448Z,63954.63
2022-10-19T06:20:53.927Z,64609.97
2022-10-19T06:23:21.382Z,64614.34
2022-10-19T06:25:48.867Z,64965.00
2022-10-19T06:28:16.308Z,66297.47
2022-10-19T06:30:43.843Z,66308.66
2022-10-19T06:33:13.740Z,65637.94
2022-10-19T06:35:42.486Z,65651.25
2022-10-19T06:38:10.116Z,65995.09
2022-10-19T06:40:37.566Z,66349.06
2022-10-19T06:43:05.008Z,67374.00
2022-10-19T06:45:35.860Z,67392.78
2022-10-19T06:48:06.783Z,70444.88
2022-10-19T06:50:37.041Z,71814.53
2022-10-19T06:53:04.518Z,75232.41
2022-10-19T06:55:31.972Z,81349.63
2022-10-19T06:58:01.607Z,86135.03
2022-10-19T07:00:29.692Z,98420.66
2022-10-19T07:02:57.472Z,100149.50
2022-10-19T07:05:25.357Z,102911.72
2022-10-19T07:07:54.694Z,113866.72
2022-10-19T07:10:22.175Z,122824.63
2022-10-19T07:12:49.648Z,130740.81
2022-10-19T07:15:17.174Z,141511.88
2022-10-19T07:17:44.660Z,151447.50
2022-10-19T07:20:12.529Z,152487.97
2022-10-19T07:22:40.212Z,153035.75
2022-10-19T07:25:09.835Z,153030.63
2022-10-19T07:27:40.041Z,152907.75
2022-10-19T07:30:08.631Z,153025.47
2022-10-19T07:32:36.073Z,153040.94
2022-10-19T07:35:03.967Z,153048.66
2022-10-19T07:37:31.675Z,153082.22
2022-10-19T07:39:59.368Z,153110.59
2022-10-19T07:42:30.351Z,153025.47
2022-10-19T07:44:57.839Z,153069.31
2022-10-19T07:47:25.407Z,153071.91
2022-10-19T07:49:52.890Z,153088.63
2022-10-19T07:52:21.300Z,153088.63
2022-10-19T07:54:49.538Z,153066.72
2022-10-19T07:57:17.242Z,153068.03
2022-10-19T07:59:46.029Z,153052.53
2022-10-19T08:02:16.935Z,153079.63
2022-10-19T08:05:03.215Z,153066.72
2022-10-19T08:07:33.935Z,153082.22
2022-10-19T08:10:01.570Z,153120.91
2022-10-19T08:12:29.276Z,153059.00
2022-10-19T08:14:58.083Z,153046.13
2022-10-19T08:17:25.567Z,153069.31
2022-10-19T08:19:53.361Z,153053.84
2022-10-19T08:22:20.825Z,153021.56
2022-10-19T08:24:49.431Z,153043.53
2022-10-19T08:27:17.229Z,153040.94
2022-10-19T08:29:44.723Z,153074.50
2022-10-19T08:32:13.594Z,153053.84
2022-10-19T08:34:41.349Z,153079.63
2022-10-19T08:37:19.834Z,153062.84
2022-10-19T08:39:56.244Z,153124.78
2022-10-19T08:42:29.987Z,153137.69
2022-10-19T08:45:17.910Z,153077.03
2022-10-19T08:48:00.410Z,153113.19
2022-10-19T08:50:32.752Z,153111.88
2022-10-19T08:53:03.643Z,153089.94
2022-10-19T08:55:42.350Z,153160.88
2022-10-19T08:58:23.600Z,153157.00
2022-10-19T09:00:57.030Z,153120.91
2022-10-19T09:03:37.762Z,153119.59
2022-10-19T09:06:25.349Z,153089.94
2022-10-19T09:08:54.965Z,153177.66
2022-10-19T09:11:26.593Z,153208.63
2022-10-19T09:14:05.713Z,153244.75
2022-10-19T09:16:34.698Z,153187.97
2022-10-19T09:19:04.767Z,153227.97
2022-10-19T09:21:46.955Z,153212.47
2022-10-19T09:24:28.894Z,153235.72
2022-10-19T09:26:59.456Z,153327.38
2022-10-19T09:29:32.928Z,153395.81
2022-10-19T09:32:02.670Z,153393.22
2022-10-19T09:34:35.793Z,153337.69
2022-10-19T09:37:03.752Z,153324.78
2022-10-19T09:39:32.427Z,153354.50
2022-10-19T09:42:05.662Z,153492.63
2022-10-19T09:44:33.472Z,153580.47
2022-10-19T09:47:15.283Z,153593.38
2022-10-19T09:49:46.311Z,153541.69
2022-10-19T09:52:26.847Z,153448.72
2022-10-19T09:55:02.086Z,153417.72
2022-10-19T09:57:29.621Z,153500.38
2022-10-19T09:59:57.279Z,153380.31
2022-10-19T10:02:31.659Z,153259.00
2022-10-19T10:05:07.270Z,153273.19
2022-10-19T10:07:38.388Z,153234.44
2022-10-19T10:10:12.260Z,153300.28
2022-10-19T10:12:41.801Z,153306.72
2022-10-19T10:15:14.931Z,153368.69
2022-10-19T10:17:47.206Z,153329.97
2022-10-19T10:20:27.745Z,153359.63
2022-10-19T10:22:58.456Z,153431.94
2022-10-19T10:25:29.608Z,153435.81
2022-10-19T10:28:00.329Z,153385.44
2022-10-19T10:30:33.420Z,153384.19
2022-10-19T10:33:09.332Z,153400.94
2022-10-19T10:35:49.821Z,153375.13
2022-10-19T10:38:22.416Z,153340.28
2022-10-19T10:40:53.092Z,153390.63
2022-10-19T10:43:26.083Z,153380.31
2022-10-19T10:45:55.859Z,153360.91
2022-10-19T10:48:29.205Z,153311.91
2022-10-19T10:51:00.005Z,153353.19
2022-10-19T10:53:36.887Z,153360.91
2022-10-19T10:56:06.177Z,153358.34
2022-10-19T10:58:43.293Z,153373.81
2022-10-19T11:01:20.242Z,153398.41
2022-10-19T11:03:53.739Z,153453.84
2022-10-19T11:06:26.320Z,153462.94
2022-10-19T11:09:05.690Z,153462.94
2022-10-19T11:11:37.091Z,153433.22
2022-10-19T11:14:23.077Z,153443.53
2022-10-19T11:16:53.650Z,153443.53
2022-10-19T11:19:24.718Z,153404.81
2022-10-19T11:22:02.959Z,153389.31
2022-10-19T11:24:46.373Z,153354.50
2022-10-19T11:27:26.442Z,153329.97
2022-10-19T11:30:04.995Z,153322.22
2022-10-19T11:32:40.998Z,153264.13
2022-10-19T11:35:21.984Z,153265.41
2022-10-19T11:38:19.013Z,153289.97
2022-10-19T11:43:55.606Z,153332.53
2022-10-19T11:46:29.295Z,153320.91
2022-10-19T11:49:13.154Z,153328.69
2022-10-19T11:51:53.391Z,153368.69
2022-10-19T11:54:35.927Z,153353.19
2022-10-19T11:57:11.926Z,153337.69
2022-10-19T11:59:51.219Z,153306.72
2022-10-19T12:02:41.120Z,153355.78
2022-10-19T12:05:13.018Z,153335.13
2022-10-19T12:08:02.864Z,153380.31
2022-10-19T12:10:38.884Z,153425.50
2022-10-19T12:13:10.567Z,153403.53
2022-10-19T12:15:43.507Z,153402.22
2022-10-19T12:18:16.983Z,153407.41
2022-10-19T12:20:48.790Z,153450.03
2022-10-19T12:23:27.882Z,153382.91
2022-10-19T12:25:59.156Z,153355.78
2022-10-19T12:28:29.905Z,153349.31
2022-10-19T12:30:58.726Z,153364.81
2022-10-19T12:33:32.823Z,153366.09
2022-10-19T12:36:12.860Z,153412.53
2022-10-19T12:38:59.738Z,153411.31
2022-10-19T12:41:36.625Z,153371.28
2022-10-19T12:44:22.138Z,153384.19
2022-10-19T12:46:53.829Z,153411.31
2022-10-19T12:49:45.337Z,153371.28
2022-10-19T12:52:14.701Z,153376.41
2022-10-19T12:54:43.813Z,153364.81
2022-10-19T12:57:28.334Z,153402.22
2022-10-19T13:00:01.347Z,153400.94
2022-10-19T13:05:06.544Z,153390.63
2022-10-19T13:07:36.978Z,153433.22
2022-10-19T13:10:09.566Z,153388.03
2022-10-19T13:12:46.947Z,153404.81
2022-10-19T13:15:50.522Z,153457.75
2022-10-19T13:19:02.043Z,153390.63
2022-10-19T13:22:00.778Z,153380.31
2022-10-19T13:24:34.497Z,153329.97
2022-10-19T13:27:35.839Z,153366.09
2022-10-19T13:30:05.868Z,153393.22
2022-10-19T13:32:40.216Z,153397.09
2022-10-19T13:35:26.316Z,153386.72
2022-10-19T13:38:21.910Z,153380.31
2022-10-19T13:41:05.144Z,153367.41
2022-10-19T13:43:37.668Z,153384.19
2022-10-19T13:46:12.659Z,153381.59
2022-10-19T13:49:03.810Z,153381.59
2022-10-19T13:51:38.536Z,153397.09
2022-10-19T13:54:21.955Z,153375.13
2022-10-19T13:57:05.195Z,153382.91
2022-10-19T14:00:01.657Z,153371.28
2022-10-19T14:03:11.747Z,153350.59
2022-10-19T14:06:08.638Z,153366.09
2022-10-19T14:09:09.866Z,153324.78
2022-10-19T14:11:40.041Z,153304.19
2022-10-19T14:14:13.349Z,153346.72
2022-10-19T14:16:48.619Z,153304.19
2022-10-19T14:19:26.682Z,153262.88
2022-10-19T14:21:57.436Z,153249.94
2022-10-19T14:24:30.743Z,153255.09
2022-10-19T14:27:00.257Z,153248.63
2022-10-19T14:29:28.103Z,153255.09
2022-10-19T14:31:55.709Z,153318.31
2022-10-19T14:34:24.580Z,153296.41
2022-10-19T14:36:52.503Z,153248.63
2022-10-19T14:39:25.723Z,153259.00
2022-10-19T14:41:55.557Z,153253.81
2022-10-19T14:44:37.201Z,153273.19
2022-10-19T14:47:16.884Z,153282.22
2022-10-19T14:49:45.870Z,153243.44
2022-10-19T14:52:21.068Z,153218.94
2022-10-19T14:54:51.890Z,153266.72
2022-10-19T14:57:24.947Z,153284.78
2022-10-19T14:59:54.635Z,153264.13
2022-10-19T15:02:24.968Z,153200.88
2022-10-19T15:04:55.789Z,153184.09
2022-10-19T15:07:27.830Z,153187.97
2022-10-19T15:09:58.703Z,153203.47
2022-10-19T15:12:30.491Z,153193.16
2022-10-19T15:14:59.025Z,153167.34
2022-10-19T15:17:29.257Z,153167.34
2022-10-19T15:20:00.808Z,153149.28
2022-10-19T15:22:40.159Z,153126.06
2022-10-19T15:25:34.034Z,153184.09
2022-10-19T15:28:19.820Z,153175.06
2022-10-19T15:30:59.157Z,153184.09
2022-10-19T15:33:26.834Z,153169.88
2022-10-19T15:36:06.698Z,153159.59
2022-10-19T15:38:34.754Z,153146.69
2022-10-19T15:41:04.375Z,153141.56
2022-10-19T15:43:39.968Z,153115.72
2022-10-19T15:46:20.793Z,153043.53
2022-10-19T15:48:52.351Z,153053.84
2022-10-19T15:51:52.308Z,153113.19
2022-10-19T15:54:21.002Z,153108.00
2022-10-19T15:56:52.754Z,153128.66
2022-10-19T15:59:23.706Z,153097.69
2022-10-19T16:01:55.053Z,153133.78
2022-10-19T16:04:23.467Z,153100.28
2022-10-19T16:06:52.389Z,153091.22
2022-10-19T16:09:22.576Z,153119.59
2022-10-19T16:11:56.295Z,153089.94
2022-10-19T16:14:24.006Z,153038.34
2022-10-19T16:16:51.578Z,153022.88
2022-10-19T16:19:19.573Z,153025.47
2022-10-19T16:21:50.311Z,153017.75
2022-10-19T16:24:19.455Z,153043.53
2022-10-19T16:26:46.928Z,153008.69
2022-10-19T16:29:14.437Z,152994.50
2022-10-19T16:31:41.895Z,152963.59
2022-10-19T16:34:09.464Z,152958.41
2022-10-19T16:36:36.919Z,152950.72
2022-10-19T16:39:04.926Z,152958.41
2022-10-19T16:41:33.757Z,152961.00
2022-10-19T16:44:01.220Z,152950.72
2022-10-19T16:46:28.679Z,152946.81
2022-10-19T16:48:56.219Z,152917.16
2022-10-19T16:51:35.856Z,152927.47
2022-10-19T16:54:04.610Z,152912.03
2022-10-19T16:56:34.318Z,152899.16
2022-10-19T16:59:04.090Z,152866.88
2022-10-19T17:01:33.112Z,152826.91
2022-10-19T17:04:01.385Z,152808.84
2022-10-19T17:06:29.500Z,152785.69
2022-10-19T17:11:47.129Z,152674.88
2022-10-19T17:14:14.636Z,152671.03
2022-10-19T17:16:42.160Z,152659.41
2022-10-19T17:19:11.529Z,152633.66
2022-10-19T17:21:39.724Z,152625.94
2022-10-19T17:24:08.874Z,152597.63
2022-10-19T17:26:38.607Z,152620.78
2022-10-19T17:29:07.779Z,152593.75
2022-10-19T17:31:36.275Z,152553.81
2022-10-19T17:34:04.539Z,152569.28
2022-10-19T17:36:35.009Z,152471.38
2022-10-19T17:39:04.768Z,152516.50
2022-10-19T17:41:32.306Z,152452.09
2022-10-19T17:43:59.780Z,152422.47
2022-10-19T17:46:31.623Z,152441.81
2022-10-19T17:49:00.083Z,152368.44
2022-10-19T17:51:29.537Z,152361.97
2022-10-19T17:53:58.448Z,152288.66
2022-10-19T17:56:26.661Z,152255.19
2022-10-19T17:58:54.847Z,152208.91
2022-10-19T18:01:23.856Z,152260.34
2022-10-19T18:03:52.843Z,152324.66
2022-10-19T18:06:22.315Z,152283.50
2022-10-19T18:08:52.505Z,152280.97
2022-10-19T18:11:23.539Z,152215.31
2022-10-19T18:13:52.090Z,152175.44
2022-10-19T18:16:22.679Z,152180.63
2022-10-19T18:18:54.089Z,152214.03
2022-10-19T18:21:24.438Z,152172.91
2022-10-19T18:23:53.336Z,152194.75
2022-10-19T18:26:23.497Z,152184.50
2022-10-19T18:28:53.158Z,152188.31
2022-10-19T18:31:22.469Z,152185.78
2022-10-19T18:33:56.314Z,152111.16
2022-10-19T18:36:23.838Z,152108.59
2022-10-19T18:38:52.035Z,152032.75
2022-10-19T18:41:20.103Z,151477.53
2022-10-19T18:43:51.906Z,152089.31
2022-10-19T18:46:20.671Z,152094.44
2022-10-19T18:48:49.775Z,152085.47
2022-10-19T18:51:19.996Z,152093.16
2022-10-19T18:53:48.120Z,152057.16
2022-10-19T18:56:18.015Z,152086.75
2022-10-19T18:58:45.671Z,152054.59
2022-10-19T19:01:14.845Z,152030.16
2022-10-19T19:03:44.791Z,152018.56
2022-10-19T19:06:14.612Z,152013.41
2022-10-19T19:11:19.506Z,151990.28
2022-10-19T19:13:49.822Z,151960.72
2022-10-19T19:16:17.653Z,151836.09
2022-10-19T19:18:45.392Z,144987.88
2022-10-19T19:21:19.031Z,142960.81
2022-10-19T19:23:48.828Z,144335.34
2022-10-19T19:26:17.709Z,144334.13
2022-10-19T19:28:47.710Z,145040.59
2022-10-19T19:31:18.346Z,147096.84
2022-10-19T19:33:46.622Z,147550.56
2022-10-19T19:36:16.480Z,147612.28
2022-10-19T19:38:44.743Z,149052.56
2022-10-19T19:41:15.163Z,148275.66
2022-10-19T19:43:43.617Z,144949.88
2022-10-19T19:46:13.715Z,142574.13
2022-10-19T19:48:42.779Z,143237.47
2022-10-19T19:51:12.014Z,143180.56
2022-10-19T19:53:39.934Z,138727.28
2022-10-19T19:56:08.462Z,138719.09
2022-10-19T19:58:37.450Z,138372.97
2022-10-19T20:01:12.294Z,139407.97
2022-10-19T20:03:41.950Z,140097.00
2022-10-19T20:06:10.768Z,142501.84
2022-10-19T20:08:39.030Z,144242.63
2022-10-19T20:11:09.029Z,148811.91
2022-10-19T20:13:38.075Z,150273.81
2022-10-19T20:16:09.526Z,150494.38
2022-10-19T20:18:37.002Z,150616.34
2022-10-19T20:21:05.763Z,149312.81
2022-10-19T20:23:33.533Z,144473.31
2022-10-19T20:26:01.001Z,141736.81
2022-10-19T20:28:29.413Z,142096.38
2022-10-19T20:31:02.536Z,144139.00
2022-10-19T20:33:31.544Z,143106.72
2022-10-19T20:36:03.808Z,141752.41
2022-10-19T20:38:31.756Z,143443.47
2022-10-19T20:41:01.021Z,145462.06
2022-10-19T20:43:31.037Z,144397.56
2022-10-19T20:46:04.715Z,140623.09
2022-10-19T20:48:32.432Z,136904.34
2022-10-19T20:51:09.959Z,138945.34
2022-10-19T20:53:37.440Z,137225.72
2022-10-19T20:56:06.259Z,136490.50
2022-10-19T20:58:34.143Z,134100.31
2022-10-19T21:01:10.964Z,132034.06
2022-10-19T21:03:38.901Z,131696.88
2022-10-19T21:06:08.402Z,129960.44
2022-10-19T21:08:36.829Z,125901.56
2022-10-19T21:11:13.338Z,127606.75
2022-10-19T21:13:41.237Z,129950.56
2022-10-19T21:16:11.642Z,125478.66
2022-10-19T21:18:39.626Z,120383.88
2022-10-19T21:21:18.366Z,119390.53
2022-10-19T21:23:48.020Z,120067.69
2022-10-19T21:26:15.548Z,123412.59
2022-10-19T21:28:47.477Z,121355.44
2022-10-19T21:31:17.756Z,120634.66
2022-10-19T21:33:46.323Z,119261.38
2022-10-19T21:36:15.629Z,116227.16
2022-10-19T21:38:43.854Z,116577.06
2022-10-19T21:41:13.821Z,116587.91
2022-10-19T21:43:41.309Z,118597.03
2022-10-19T21:46:12.895Z,119607.69
2022-10-19T21:48:42.256Z,119268.44
2022-10-19T21:51:23.753Z,118247.88
2022-10-19T21:53:52.044Z,117589.53
2022-10-19T21:56:19.860Z,119267.44
2022-10-19T21:58:47.759Z,117603.44
2022-10-19T22:01:16.129Z,118964.44
2022-10-19T22:03:45.390Z,120620.38
2022-10-19T22:06:13.415Z,117934.69
2022-10-19T22:08:41.817Z,118930.22
2022-10-19T22:11:11.883Z,116934.97
2022-10-19T22:13:40.136Z,120620.38
2022-10-19T22:16:09.806Z,117261.28
2022-10-19T22:18:37.331Z,119925.63
2022-10-19T22:21:08.127Z,118237.88
2022-10-19T22:23:35.599Z,116556.38
2022-10-19T22:26:03.118Z,116560.31
2022-10-19T22:28:30.576Z,117240.47
2022-10-19T22:30:59.930Z,118596.06
2022-10-19T22:33:27.367Z,119947.94
2022-10-19T22:35:56.349Z,119625.88
2022-10-19T22:38:25.382Z,120346.19
2022-10-19T22:40:52.855Z,122394.72
2022-10-19T22:43:20.779Z,125110.19
2022-10-19T22:45:48.627Z,128121.38
2022-10-19T22:48:16.091Z,128441.69
2022-10-19T22:50:43.685Z,126721.44
2022-10-19T22:53:11.822Z,125347.06
2022-10-19T22:55:40.627Z,126661.34
2022-10-19T22:58:09.001Z,121959.13
2022-10-19T23:00:36.659Z,121284.66
2022-10-19T23:03:04.778Z,120954.53
2022-10-19T23:05:32.310Z,120637.72
2022-10-19T23:08:00.024Z,122640.94
2022-10-19T23:10:27.699Z,119279.50
2022-10-19T23:12:56.470Z,119967.19
2022-10-19T23:15:24.073Z,120658.13
2022-10-19T23:17:51.540Z,120647.91
2022-10-19T23:20:19.138Z,122354.34
2022-10-19T23:22:46.598Z,123010.50
2022-10-19T23:25:14.052Z,122657.56
2022-10-19T23:27:41.483Z,122983.44
2022-10-19T23:30:11.055Z,118591.03
2022-10-19T23:32:38.476Z,119929.69
2022-10-19T23:35:07.070Z,119955.03
2022-10-19T23:37:34.870Z,121631.13
2022-10-19T23:40:02.702Z,121962.22
2022-10-19T23:42:30.280Z,123979.69
2022-10-19T23:44:57.731Z,122931.38
2022-10-19T23:47:26.539Z,120869.59
2022-10-19T23:49:54.090Z,118177.84
2022-10-19T23:52:21.532Z,119531.78
2022-10-19T23:54:48.996Z,122204.28
2022-10-19T23:57:16.452Z,122500.88
2022-10-19T23:59:43.903Z,119120.19
